• Join FlightAware (Why Join?)
  • Login
  • US Flag 
09:11PM EDT


 

Airport Tracker/Info


-or-


 

Live Flight TrackerFlight Track Log ✈ N544PS ✈ 16-Aug-2013 ✈ KPDX - KMRY

Flight Track Log - Related Links

Times and Time Zones

All times are in EDT time to prevent confusion due to time zone crossing. See the N544PS flight status page for this flight to view local times or setup timezone preferences in your user account.

Time Position Orientation Groundspeed Altitude Reporting Facility
EDT Latitude Longitude Course Direction KTS MPH feet Rate Location/Type
12:03PM 45.5800 -122.5603 120° Southeast 189 217 800  Level Seattle Center
12:04PM 45.5578 -122.5047 120° Southeast 212 244 2,700 2,280 Climbing Seattle Center
12:06PM 45.4844 -122.4736 163° South 243 280 5,700 2,220 Climbing Seattle Center
12:07PM 45.4408 -122.5247 219° Southwest 246 283 7,900 2,340 Climbing Seattle Center
12:08PM 45.3983 -122.5950 229° Southwest 235 270 10,500 2,640 Climbing Seattle Center
12:09PM 45.3431 -122.6789 227° Southwest 242 278 13,300 2,400 Climbing Seattle Center
12:10PM 45.2847 -122.7211 207° Southwest 241 277 15,500 2,100 Climbing Seattle Center
12:11PM 45.2186 -122.7444 194° South 246 283 17,700 2,040 Climbing Seattle Center
12:12PM 45.1556 -122.7736 198° South 239 275 19,700 1,860 Climbing Seattle Center
12:13PM 45.0933 -122.8003 197° South 235 270 21,500 1,560 Climbing Seattle Center
12:14PM 45.0292 -122.8292 198° South 239 275 23,000 1,320 Climbing Seattle Center
12:15PM 44.9611 -122.8586 197° South 254 292 24,300 1,260 Climbing Seattle Center
12:16PM 44.8911 -122.8886 197° South 263 303 25,600 1,320 Climbing Seattle Center
12:17PM 44.8208 -122.9197 197° South 264 304 27,000 1,260 Climbing Seattle Center
12:18PM 44.7511 -122.9492 197° South 260 299 28,300 1,200 Climbing Seattle Center
12:19PM 44.6800 -122.9800 197° South 265 305 29,500 1,320 Climbing Seattle Center
12:20PM 44.5956 -123.0172 197° South 265 305 31,000 1,260 Climbing Seattle Center
12:21PM 44.5267 -123.0467 197° South 260 299 32,100 1,020 Climbing Seattle Center
12:22PM 44.4578 -123.0769 197° South 258 297 33,100 960 Climbing Seattle Center
12:23PM 44.3886 -123.1058 197° South 259 298 34,100 1,020 Climbing Seattle Center
12:24PM 44.3203 -123.1333 196° South 256 295 35,200 960 Climbing Seattle Center
12:25PM 44.2519 -123.1653 199° South 257 296 36,100 720 Climbing Seattle Center
12:26PM 44.1836 -123.1947 197° South 257 296 36,700 540 Climbing Seattle Center
12:27PM 44.1142 -123.2225 196° South 259 298 37,200 540 Climbing Seattle Center
12:28PM 44.0356 -123.2192 178° South 268 308 37,900 600 Climbing Seattle Center
12:29PM 43.9597 -123.2114 176° South 272 313 38,500 540 Climbing Seattle Center
12:30PM 43.8828 -123.2061 177° South 274 315 39,000 480 Climbing Seattle Center
12:31PM 43.7900 -123.2003 177° South 276 318 39,600 480 Climbing Seattle Center
12:32PM 43.7119 -123.1969 178° South 280 322 40,100 300 Climbing Seattle Center
12:33PM 43.6339 -123.1917 177° South 280 322 40,300 240 Climbing Seattle Center
12:34PM 43.5539 -123.1858 177° South 286 329 40,600 240 Climbing Seattle Center
12:35PM 43.4731 -123.1811 178° South 290 334 40,800 120 Climbing Seattle Center
12:36PM 43.3919 -123.1756 177° South 291 335 40,900  Climbing Seattle Center
12:37PM 43.3078 -123.1714 178° South 300 345 40,900  Level Seattle Center
12:38PM 43.2247 -123.1644 177° South 299 344 40,900  Level Seattle Center
12:39PM 43.1422 -123.1589 177° South 299 344 40,900  Level Seattle Center
12:40PM 43.0442 -123.1531 178° South 294 338 40,900  Level Seattle Center
12:41PM 42.9625 -123.1492 178° South 293 337 40,900  Level Seattle Center
12:42PM 42.8814 -123.1442 177° South 291 335 40,900  Level Seattle Center
12:43PM 42.8000 -123.1392 177° South 292 336 40,900  Level Seattle Center
12:44PM 42.7183 -123.1331 177° South 293 337 40,900  Level Seattle Center
12:45PM 42.6406 -123.1283 177° South 293 337 40,900  Level Seattle Center
12:46PM 42.5600 -123.1244 178° South 293 337 40,900  Level Seattle Center
12:47PM 42.4628 -123.1181 177° South 292 336 40,900  Level Seattle Center
12:48PM 42.3822 -123.1119 177° South 291 335 40,900  Level Seattle Center
12:49PM 42.3011 -123.1078 178° South 291 335 40,900  Level Seattle Center
12:51PM 42.2208 -123.1028 177° South 291 335 40,900  Level Seattle Center
12:52PM 42.1414 -123.0989 178° South 288 331 40,900  Level Seattle Center
12:53PM 42.0611 -123.0933 177° South 289 333 40,900  Level Seattle Center
12:54PM 41.9811 -123.0881 177° South 289 333 40,900  Level Seattle Center
12:55PM 41.9017 -123.0839 178° South 287 330 40,900  Level Seattle Center
12:56PM 41.8058 -123.0794 178° South 288 331 40,900  Level Seattle Center
12:57PM 41.7267 -123.0733 177° South 288 331 40,900  Level Seattle Center
12:58PM 41.6458 -123.0686 178° South 290 334 40,900  Level Seattle Center
12:59PM 41.5650 -123.0644 178° South 291 335 40,900  Level Seattle Center
01:00PM 41.4847 -123.0597 177° South 290 334 40,900  Level Seattle Center
01:01PM 41.4044 -123.0544 177° South 290 334 40,900  Level Seattle Center
01:02PM 41.3200 -123.0511 178° South 293 337 40,900  Level Seattle Center
01:03PM 41.2397 -123.0461 177° South 290 334 40,900  Level Seattle Center
01:04PM 41.1581 -123.0422 178° South 292 336 40,900  Level Seattle Center
01:05PM 41.0594 -123.0361 177° South 295 339 40,900  Level Oakland Center
01:06PM 40.9772 -123.0317 178° South 296 341 40,900  Level Oakland Center
01:07PM 40.8944 -123.0267 177° South 298 343 40,900  Level Oakland Center
01:08PM 40.8114 -123.0225 178° South 299 344 40,900  Level Oakland Center
01:09PM 40.7264 -123.0175 177° South 299 344 40,900  Level Oakland Center
01:10PM 40.6417 -123.0125 177° South 304 350 40,900  Level Oakland Center
01:11PM 40.5581 -123.0083 178° South 303 349 40,900  Level Oakland Center
01:12PM 40.4564 -123.0031 178° South 304 350 40,900  Level Oakland Center
01:13PM 40.3722 -122.9978 177° South 305 351 40,900  Level Oakland Center
01:14PM 40.2886 -122.9928 177° South 302 348 40,900  Level Oakland Center
01:15PM 40.2053 -122.9881 178° South 301 346 40,900  Level Oakland Center
01:16PM 40.1211 -122.9833 178° South 303 349 40,900  Level Oakland Center
01:17PM 40.0364 -122.9783 177° South 305 351 40,900  Level Oakland Center
01:18PM 39.9347 -122.9728 178° South 307 353 40,900  Level Oakland Center
01:19PM 39.8508 -122.9675 177° South 304 350 40,900  Level Oakland Center
01:20PM 39.7656 -122.9631 178° South 307 353 40,900  Level Oakland Center
01:21PM 39.6814 -122.9572 177° South 306 352 40,900  Level Oakland Center
01:22PM 39.5953 -122.9528 178° South 308 354 40,900  Level Oakland Center
01:23PM 39.5094 -122.9475 177° South 310 357 40,900  Level Oakland Center
01:24PM 39.4147 -122.9408 177° South 309 356 40,900  Level Oakland Center
01:25PM 39.3286 -122.9372 178° South 309 356 40,900  Level Oakland Center
01:26PM 39.2428 -122.9331 178° South 309 356 40,900  Level Oakland Center
01:27PM 39.1572 -122.9278 177° South 309 356 40,900  Level Oakland Center
01:29PM 39.0536 -122.9219 177° South 308 354 40,900  Level Oakland Center
01:30PM 38.9667 -122.9178 178° South 312 359 40,900 -60 Level Oakland Center
01:31PM 38.8808 -122.9122 177° South 311 358 40,800 -360 Descending Oakland Center
01:32PM 38.7911 -122.9069 177° South 320 368 40,200 -600 Descending Oakland Center
01:33PM 38.6989 -122.9019 178° South 330 380 39,600 -780 Descending Oakland Center
01:34PM 38.6025 -122.8969 178° South 344 396 38,700 -1,020 Descending Oakland Center
01:35PM 38.4864 -122.8914 178° South 350 403 37,500 -1,080 Descending Oakland Center
01:36PM 38.3917 -122.8850 177° South 344 396 36,600 -1,020 Descending Oakland Center
01:37PM 38.2964 -122.8803 178° South 343 395 35,500 -1,140 Descending Oakland Center
01:38PM 38.1994 -122.8750 178° South 349 402 34,300 -1,200 Descending Oakland Center
01:39PM 38.1019 -122.8703 178° South 352 405 33,100 -1,140 Descending Oakland Center
01:40PM 38.0050 -122.8403 166° South 363 418 32,000 -1,380 Descending Oakland Center
01:41PM 37.8911 -122.7883 160° South 367 422 30,300 -1,740 Descending Oakland Center
01:42PM 37.7944 -122.7461 161° South 375 432 28,500 -1,800 Descending Oakland Center
01:43PM 37.6975 -122.7028 161° South 375 432 26,700 -1,860 Descending Oakland Center
01:44PM 37.5989 -122.6603 161° South 376 433 24,800 -2,040 Descending Oakland Center
01:45PM 37.4808 -122.6106 162° South 375 432 22,600 -2,040 Descending Oakland Center
01:46PM 37.3861 -122.5692 161° South 364 419 20,600 -1,980 Descending Oakland Center
01:47PM 37.2936 -122.5317 162° South 354 407 18,600 -1,920 Descending Oakland Center
01:48PM 37.2042 -122.4928 161° South 345 397 16,700 -1,800 Descending Oakland Center
01:49PM 37.1214 -122.4386 152° Southeast 337 388 14,900 -1,740 Descending Oakland Center
01:50PM 37.0514 -122.3650 140° Southeast 331 381 13,200 -1,680 Descending Oakland Center
01:51PM 36.9675 -122.2800 141° Southeast 324 373 11,500 -1,500 Descending Oakland Center
01:52PM 36.8972 -122.2128 143° Southeast 319 367 10,100 -1,380 Descending Oakland Center
01:53PM 36.8319 -122.1464 141° Southeast 307 353 8,700 -1,380 Descending Oakland Center
01:54PM 36.7833 -122.1000 143° Southeast 294 338 7,900 -1,140 Descending Northern Cal TRACON
01:55PM 36.7500 -122.0667 141° Southeast 233 268 7,000 -960 Descending Northern Cal TRACON
01:56PM 36.6833 -122.0000 141° Southeast 235 270 6,000 -840 Descending Northern Cal TRACON
01:57PM 36.6333 -121.9500 141° Southeast 237 273 5,300 -840 Descending Northern Cal TRACON
01:57PM 36.6081 -121.9308 149° Southeast 232 267 4,800 -840 Descending Oakland Center
01:58PM 36.5653 -121.8903 143° Southeast 212 244 4,000 -540 Descending Oakland Center
01:59PM 36.5414 -121.8311 117° Southeast 209 241 3,700 -1,200 Descending Oakland Center
02:01PM 36.5667 -121.8000 45° Northeast 135 155 1,300 -1,980 Descending Northern Cal TRACON